Time;durP1;ratioP1;P1;durP2;ratioP2;P2;SDS_P1;SDS_P2;PMS_P1;PMS_P2;Temp;Humidity;BMP_temperature;BMP_pressure;BME280_temperature;BME280_humidity;BME280_pressure;Samples;Min_cycle;Max_cycle;Signal;HPM_P1;HPM_P2
2023/04/29 00:01:57;;;;;;;0.00;0.00;;;9.70;99.90;;;;;;5043644;28;20120;-81
2023/04/29 00:04:22;;;;;;;0.00;0.00;;;9.70;99.90;;;;;;5012311;28;20089;-80
2023/04/29 00:06:48;;;;;;;0.00;0.00;;;9.70;99.90;;;;;;5044358;28;20075;-80
2023/04/29 00:09:14;;;;;;;0.00;0.00;;;9.70;99.90;;;;;;5044580;28;20025;-80
2023/04/29 00:11:39;;;;;;;0.00;0.00;;;9.70;99.90;;;;;;5043966;28;20131;-80
2023/04/29 00:14:05;;;;;;;0.00;0.00;;;9.70;99.90;;;;;;5044144;28;20018;-80
2023/04/29 00:16:31;;;;;;;0.00;0.00;;;9.70;99.90;;;;;;5045193;28;20025;-80
2023/04/29 00:18:56;;;;;;;0.00;0.00;;;9.70;99.90;;;;;;5045343;28;20489;-80
2023/04/29 00:21:23;;;;;;;0.00;0.00;;;9.70;99.90;;;;;;5027969;28;20053;-80
2023/04/29 00:23:49;;;;;;;0.00;0.00;;;9.70;99.90;;;;;;5035374;28;20044;-80
2023/04/29 00:26:15;;;;;;;0.00;0.00;;;9.70;99.90;;;;;;5049688;28;20028;-81
2023/04/29 00:28:41;;;;;;;0.00;0.00;;;9.70;99.90;;;;;;5051638;28;20100;-80
2023/04/29 00:31:07;;;;;;;0.00;0.00;;;9.70;99.90;;;;;;5050807;28;20093;-80
2023/04/29 00:33:32;;;;;;;0.00;0.00;;;9.70;99.90;;;;;;5047725;28;20085;-80
2023/04/29 00:35:58;;;;;;;0.00;0.00;;;9.70;99.90;;;;;;5051996;28;20025;-80
2023/04/29 00:38:23;;;;;;;0.00;0.00;;;9.70;99.90;;;;;;5047223;28;20471;-80
2023/04/29 00:40:49;;;;;;;0.00;0.00;;;9.70;99.90;;;;;;5044420;28;20026;-80
2023/04/29 00:43:15;;;;;;;0.00;0.00;;;9.80;99.90;;;;;;5044448;28;20032;-79
2023/04/29 00:45:41;;;;;;;0.00;0.00;;;9.90;99.90;;;;;;5026870;28;20082;-80
2023/04/29 00:48:07;;;;;;;0.00;0.00;;;10.00;99.90;;;;;;5045720;28;20126;-79
2023/04/29 00:50:33;;;;;;;0.00;0.00;;;10.00;99.90;;;;;;5051389;28;20018;-80
2023/04/29 00:52:59;;;;;;;0.00;0.00;;;10.00;99.90;;;;;;5052127;28;20018;-79
2023/04/29 00:55:26;;;;;;;0.00;0.00;;;10.10;99.90;;;;;;5036943;28;20018;-79
2023/04/29 00:57:52;;;;;;;0.00;0.00;;;10.00;99.90;;;;;;5051094;28;20033;-79
2023/04/29 01:00:18;;;;;;;0.00;0.00;;;10.00;99.90;;;;;;5028418;28;20085;-79
2023/04/29 01:02:45;;;;;;;0.00;0.00;;;10.00;99.90;;;;;;5051735;28;20060;-81
2023/04/29 01:05:11;;;;;;;0.00;0.00;;;10.00;99.90;;;;;;5040862;28;20107;-80
2023/04/29 01:07:57;;;;;;;0.00;0.00;;;10.00;99.90;;;;;;5032941;28;20041;-79
2023/04/29 01:10:31;;;;;;;0.00;0.00;;;10.00;99.90;;;;;;5030933;28;20029;-79
2023/04/29 01:13:15;;;;;;;0.00;0.00;;;10.00;99.90;;;;;;5046104;28;20029;-79
2023/04/29 01:16:03;;;;;;;0.00;0.00;;;10.00;99.90;;;;;;5039362;28;20043;-79
2023/04/29 01:18:35;;;;;;;0.00;0.00;;;10.00;99.90;;;;;;5020572;28;20036;-79
2023/04/29 01:21:01;;;;;;;0.00;0.00;;;10.00;99.90;;;;;;5051835;28;20033;-80
2023/04/29 01:23:30;;;;;;;0.00;0.00;;;9.90;99.90;;;;;;5040350;28;20040;-81
2023/04/29 01:25:57;;;;;;;0.00;0.00;;;10.00;99.90;;;;;;5041739;28;20030;-80
2023/04/29 01:28:40;;;;;;;0.00;0.00;;;10.00;99.90;;;;;;5046841;28;20030;-80
2023/04/29 01:31:30;;;;;;;0.00;0.00;;;9.90;99.90;;;;;;5040695;28;20044;-80
2023/04/29 01:34:18;;;;;;;0.00;0.00;;;10.00;99.90;;;;;;5050963;28;20049;-80
2023/04/29 01:37:16;;;;;;;0.00;0.00;;;10.00;99.90;;;;;;5050588;28;20032;-79
2023/04/29 01:39:54;;;;;;;0.00;0.00;;;10.00;99.90;;;;;;5015604;28;20030;-79
2023/04/29 01:42:37;;;;;;;0.00;0.00;;;9.90;99.90;;;;;;5038957;28;20077;-79
2023/04/29 01:45:07;;;;;;;0.00;0.00;;;10.00;99.90;;;;;;5054791;28;20043;-79
2023/04/29 01:47:34;;;;;;;0.00;0.00;;;10.00;99.90;;;;;;5055050;28;20024;-80
2023/04/29 01:50:01;;;;;;;0.00;0.00;;;9.90;99.90;;;;;;5055311;28;20056;-80
2023/04/29 01:52:27;;;;;;;0.00;0.00;;;9.90;99.90;;;;;;5054807;28;20013;-78
2023/04/29 01:54:53;;;;;;;0.00;0.00;;;9.90;99.90;;;;;;5055021;28;20033;-79
2023/04/29 01:57:19;;;;;;;0.00;0.00;;;9.90;99.90;;;;;;5054433;28;20072;-79
2023/04/29 01:59:44;;;;;;;0.00;0.00;;;9.90;99.90;;;;;;5054016;28;20041;-78
2023/04/29 02:02:10;;;;;;;0.00;0.00;;;9.90;99.90;;;;;;5052312;28;20126;-79
2023/04/29 02:04:36;;;;;;;0.00;0.00;;;9.90;99.90;;;;;;5053833;28;20013;-79
2023/04/29 02:07:02;;;;;;;0.00;0.00;;;9.90;99.90;;;;;;5045794;28;20030;-78
2023/04/29 02:09:28;;;;;;;0.00;0.00;;;10.00;99.90;;;;;;5048504;28;20032;-80
2023/04/29 02:11:54;;;;;;;0.00;0.00;;;10.00;99.90;;;;;;5046959;28;20026;-80
2023/04/29 02:14:19;;;;;;;0.00;0.00;;;10.00;99.90;;;;;;5028533;28;20010;-81
2023/04/29 02:16:45;;;;;;;0.00;0.00;;;10.10;99.90;;;;;;5046823;28;20032;-81
2023/04/29 02:19:11;;;;;;;0.00;0.00;;;10.20;99.90;;;;;;5047779;28;20041;-80
2023/04/29 02:21:38;;;;;;;0.00;0.00;;;10.20;99.90;;;;;;5043415;28;20125;-79
2023/04/29 02:24:05;;;;;;;0.00;0.00;;;10.30;99.90;;;;;;5051131;28;20029;-81
2023/04/29 02:26:34;;;;;;;0.00;0.00;;;10.30;99.90;;;;;;5051930;28;20052;-79
2023/04/29 02:29:02;;;;;;;0.00;0.00;;;10.30;99.90;;;;;;5050579;28;20041;-80
2023/04/29 02:31:28;;;;;;;0.00;0.00;;;10.30;99.90;;;;;;5052329;28;20033;-80
2023/04/29 02:33:54;;;;;;;0.00;0.00;;;10.30;99.90;;;;;;5050628;28;20032;-79
2023/04/29 02:36:20;;;;;;;0.00;0.00;;;10.30;99.90;;;;;;5054406;28;20029;-78
2023/04/29 02:38:49;;;;;;;0.00;0.00;;;10.20;99.90;;;;;;5055938;28;20094;-79
2023/04/29 02:41:18;;;;;;;0.00;0.00;;;10.30;99.90;;;;;;5056324;28;20089;-79
2023/04/29 02:43:44;;;;;;;0.00;0.00;;;10.20;99.90;;;;;;5055928;28;20029;-80
2023/04/29 02:46:13;;;;;;;0.00;0.00;;;10.30;99.90;;;;;;5050150;28;20022;-80
2023/04/29 02:48:41;;;;;;;0.00;0.00;;;10.30;99.90;;;;;;5052226;28;20086;-80
2023/04/29 02:51:10;;;;;;;0.00;0.00;;;10.30;99.90;;;;;;5054243;28;20033;-79
2023/04/29 02:53:36;;;;;;;0.00;0.00;;;10.30;99.90;;;;;;5038371;28;20053;-79
2023/04/29 02:56:05;;;;;;;0.00;0.00;;;10.30;99.90;;;;;;5056501;28;20029;-79
2023/04/29 02:58:33;;;;;;;0.00;0.00;;;10.30;99.90;;;;;;5056352;28;20025;-80
2023/04/29 03:00:59;;;;;;;0.00;0.00;;;10.30;99.90;;;;;;5039244;28;20085;-81
2023/04/29 03:03:24;;;;;;;0.00;0.00;;;10.30;99.90;;;;;;5033895;28;20037;-79
2023/04/29 03:05:50;;;;;;;0.00;0.00;;;10.40;99.90;;;;;;5051396;28;20036;-79
2023/04/29 03:08:16;;;;;;;0.00;0.00;;;10.40;99.90;;;;;;5037145;28;20024;-78
2023/04/29 03:10:42;;;;;;;0.00;0.00;;;10.50;99.90;;;;;;5054354;28;20029;-80
2023/04/29 03:13:07;;;;;;;0.00;0.00;;;10.50;99.90;;;;;;5035100;28;20064;-80
2023/04/29 03:15:33;;;;;;;0.00;0.00;;;10.60;99.90;;;;;;5046855;28;20025;-80
2023/04/29 03:18:03;;;;;;;0.00;0.00;;;10.60;99.90;;;;;;5050262;28;20021;-79
2023/04/29 03:20:29;;;;;;;0.00;0.00;;;10.70;99.90;;;;;;5039339;28;20069;-79
2023/04/29 03:22:55;;;;;;;0.00;0.00;;;10.70;99.90;;;;;;5033818;28;20029;-80
2023/04/29 03:25:20;;;;;;;0.00;0.00;;;10.70;99.90;;;;;;5033094;28;20469;-81
2023/04/29 03:27:46;;;;;;;0.00;0.00;;;10.80;99.90;;;;;;5027435;28;20133;-79
2023/04/29 03:30:12;;;;;;;0.00;0.00;;;10.80;99.90;;;;;;5044597;28;20132;-79
2023/04/29 03:32:38;;;;;;;0.00;0.00;;;10.80;99.90;;;;;;5044579;28;20045;-80
2023/04/29 03:35:04;;;;;;;0.00;0.00;;;10.70;99.90;;;;;;5044441;28;20355;-79
2023/04/29 03:37:30;;;;;;;0.00;0.00;;;10.70;99.90;;;;;;5045688;28;20081;-81
2023/04/29 03:39:55;;;;;;;0.00;0.00;;;10.70;99.90;;;;;;5048605;28;20022;-78
2023/04/29 03:42:21;;;;;;;0.00;0.00;;;10.80;99.90;;;;;;5055446;28;20033;-78
2023/04/29 03:44:47;;;;;;;0.00;0.00;;;10.80;99.90;;;;;;5047972;28;20113;-79
2023/04/29 03:47:12;;;;;;;0.00;0.00;;;10.80;99.90;;;;;;5027129;28;20036;-80
2023/04/29 03:49:38;;;;;;;0.00;0.00;;;10.80;99.90;;;;;;5045283;28;20038;-79
2023/04/29 03:52:05;;;;;;;0.00;0.00;;;10.90;99.90;;;;;;5045377;28;20105;-79
2023/04/29 03:54:31;;;;;;;0.00;0.00;;;10.90;99.90;;;;;;5050746;28;20020;-80
2023/04/29 03:56:56;;;;;;;0.00;0.00;;;10.90;99.90;;;;;;5056302;28;20056;-79
2023/04/29 03:59:22;;;;;;;0.00;0.00;;;10.80;99.90;;;;;;5055851;28;20033;-78
2023/04/29 04:01:48;;;;;;;0.00;0.00;;;10.80;99.90;;;;;;5051197;28;20052;-80
2023/04/29 04:04:14;;;;;;;0.00;0.00;;;10.80;99.90;;;;;;5042458;28;20029;-79
2023/04/29 04:06:40;;;;;;;0.00;0.00;;;10.80;99.90;;;;;;5043152;28;20131;-79
2023/04/29 04:09:05;;;;;;;0.00;0.00;;;10.70;99.90;;;;;;5043664;28;20040;-80
2023/04/29 04:11:31;;;;;;;0.00;0.00;;;10.70;99.90;;;;;;5026454;28;20033;-80
2023/04/29 04:13:57;;;;;;;0.00;0.00;;;10.70;99.90;;;;;;5044145;28;20025;-80
2023/04/29 04:16:22;;;;;;;0.00;0.00;;;10.70;99.90;;;;;;5044447;28;20103;-80
2023/04/29 04:18:48;;;;;;;0.00;0.00;;;10.80;99.90;;;;;;5043856;28;20036;-80
2023/04/29 04:21:13;;;;;;;0.00;0.00;;;10.80;99.90;;;;;;5044484;28;20060;-81
2023/04/29 04:23:39;;;;;;;0.00;0.00;;;10.90;99.90;;;;;;5044369;28;20025;-80
2023/04/29 04:26:06;;;;;;;0.00;0.00;;;10.80;99.90;;;;;;5043648;28;20017;-81
2023/04/29 04:28:32;;;;;;;0.00;0.00;;;10.90;99.90;;;;;;5043677;28;20029;-80
2023/04/29 04:30:57;;;;;;;0.00;0.00;;;10.90;99.90;;;;;;5024989;28;20548;-78
2023/04/29 04:33:25;;;;;;;0.00;0.00;;;10.90;99.90;;;;;;5026192;28;20028;-79
2023/04/29 04:35:50;;;;;;;0.00;0.00;;;10.90;99.90;;;;;;5024351;28;20400;-79
2023/04/29 04:38:16;;;;;;;0.00;0.00;;;11.00;99.90;;;;;;5042779;28;20017;-80
2023/04/29 04:40:42;;;;;;;0.00;0.00;;;11.00;99.90;;;;;;5043071;28;20033;-79
2023/04/29 04:43:08;;;;;;;0.00;0.00;;;11.10;99.90;;;;;;5045092;28;20036;-80
2023/04/29 04:45:33;;;;;;;0.00;0.00;;;11.10;99.90;;;;;;5031945;28;20036;-79
2023/04/29 04:48:00;;;;;;;0.00;0.00;;;;;;;;;;5049015;28;20044;-80
2023/04/29 04:50:29;;;;;;;0.00;0.00;;;11.30;99.90;;;;;;5027569;28;20087;-80
2023/04/29 04:52:56;;;;;;;0.00;0.00;;;11.30;99.90;;;;;;5030171;28;20026;-79
2023/04/29 04:55:22;;;;;;;0.00;0.00;;;11.40;99.90;;;;;;5051289;28;20064;-79
2023/04/29 04:57:48;;;;;;;0.00;0.00;;;11.50;99.90;;;;;;5031168;28;20025;-80
2023/04/29 05:00:14;;;;;;;0.00;0.00;;;11.60;99.90;;;;;;5045706;28;20215;-80
2023/04/29 05:02:39;;;;;;;0.00;0.00;;;11.70;99.90;;;;;;5042200;28;20053;-80
2023/04/29 05:05:05;;;;;;;0.00;0.00;;;11.80;99.90;;;;;;5018602;28;20053;-79
2023/04/29 05:07:34;;;;;;;0.00;0.00;;;11.80;99.90;;;;;;5036968;28;20029;-81
2023/04/29 05:10:00;;;;;;;0.00;0.00;;;;;;;;;;5036600;28;20056;-80
2023/04/29 05:12:29;;;;;;;0.00;0.00;;;11.90;99.90;;;;;;5023658;28;20036;-79
2023/04/29 05:14:55;;;;;;;0.00;0.00;;;11.90;99.90;;;;;;5041565;28;20021;-82
2023/04/29 05:17:21;;;;;;;0.00;0.00;;;12.00;99.90;;;;;;5046067;28;20026;-81
2023/04/29 05:19:46;;;;;;;0.00;0.00;;;12.20;99.90;;;;;;5056355;28;20041;-80
2023/04/29 05:22:12;;;;;;;0.00;0.00;;;12.40;99.90;;;;;;5054870;28;20089;-79
2023/04/29 05:24:38;;;;;;;0.00;0.00;;;12.50;99.90;;;;;;5050503;28;20117;-80
2023/04/29 05:27:03;;;;;;;0.00;0.00;;;12.60;99.90;;;;;;5047392;28;20022;-79
2023/04/29 05:29:29;;;;;;;0.00;0.00;;;12.70;99.90;;;;;;5049422;28;20572;-80
2023/04/29 05:31:55;;;;;;;0.00;0.00;;;12.70;99.90;;;;;;5053725;28;20051;-79
2023/04/29 05:34:21;;;;;;;0.00;0.00;;;12.80;99.90;;;;;;5034942;28;20121;-80
2023/04/29 05:36:46;;;;;;;0.00;0.00;;;12.80;99.90;;;;;;5047727;28;20044;-79
2023/04/29 05:39:12;;;;;;;0.00;0.00;;;12.70;99.90;;;;;;5028782;28;20032;-81
2023/04/29 05:41:38;;;;;;;0.00;0.00;;;12.90;99.90;;;;;;5044977;28;20033;-80
2023/04/29 05:44:04;;;;;;;0.00;0.00;;;12.90;99.90;;;;;;5027258;28;20091;-80
2023/04/29 05:46:30;;;;;;;0.00;0.00;;;;;;;;;;5027749;28;20029;-79
2023/04/29 05:48:56;;;;;;;0.00;0.00;;;13.20;99.90;;;;;;5027558;28;20150;-80
2023/04/29 05:51:21;;;;;;;0.00;0.00;;;13.20;99.90;;;;;;5028299;28;20025;-81
2023/04/29 05:53:47;;;;;;;0.00;0.00;;;13.20;99.90;;;;;;5045899;28;20021;-81
2023/04/29 05:56:22;;;;;;;0.00;0.00;;;13.10;99.90;;;;;;5033833;28;20083;-81
2023/04/29 05:58:48;;;;;;;0.00;0.00;;;13.10;99.90;;;;;;5040683;28;20219;-80
2023/04/29 06:01:14;;;;;;;0.00;0.00;;;13.10;99.90;;;;;;5040674;28;20081;-80
2023/04/29 06:03:40;;;;;;;0.00;0.00;;;13.10;99.90;;;;;;5041159;28;20029;-79
2023/04/29 06:06:06;;;;;;;0.00;0.00;;;13.20;99.90;;;;;;5040408;28;20025;-80
2023/04/29 06:08:32;;;;;;;0.00;0.00;;;13.20;99.90;;;;;;5057708;28;20041;-79
2023/04/29 06:10:58;;;;;;;0.00;0.00;;;;;;;;;;5058030;28;20029;-78
2023/04/29 06:13:24;;;;;;;0.00;0.00;;;14.10;99.90;;;;;;5053719;28;20041;-81
2023/04/29 06:15:50;;;;;;;0.00;0.00;;;15.50;99.90;;;;;;5045431;28;20033;-80
2023/04/29 06:18:16;;;;;;;0.00;0.00;;;16.90;99.90;;;;;;5045665;28;20374;-80
2023/04/29 06:20:42;;;;;;;0.00;0.00;;;18.10;99.90;;;;;;5027375;28;20029;-80
2023/04/29 06:23:07;;;;;;;0.10;0.00;;;18.60;99.90;;;;;;5044336;28;20033;-79
2023/04/29 06:25:33;;;;;;;0.00;0.00;;;18.90;99.90;;;;;;5043797;28;20033;-80
2023/04/29 06:27:59;;;;;;;0.00;0.00;;;18.40;99.90;;;;;;5043813;28;20021;-81
2023/04/29 06:30:25;;;;;;;0.00;0.00;;;17.90;99.90;;;;;;5044200;28;20075;-79
2023/04/29 06:32:51;;;;;;;0.00;0.00;;;17.50;99.90;;;;;;5047501;28;20029;-79
2023/04/29 06:35:17;;;;;;;0.00;0.00;;;17.20;99.90;;;;;;5047746;28;20031;-78
2023/04/29 06:37:42;;;;;;;0.00;0.00;;;16.60;99.90;;;;;;5048944;28;20025;-77
2023/04/29 06:40:08;;;;;;;0.10;0.10;;;16.40;99.90;;;;;;5033251;28;20044;-79
2023/04/29 06:42:35;;;;;;;0.13;0.13;;;15.70;99.90;;;;;;5047281;28;20105;-79
2023/04/29 06:45:01;;;;;;;0.10;0.10;;;15.90;99.90;;;;;;5043167;28;20018;-79
2023/04/29 06:47:27;;;;;;;0.20;0.20;;;17.10;99.90;;;;;;5043874;28;20060;-81
2023/04/29 06:49:53;;;;;;;0.40;0.40;;;16.90;99.90;;;;;;5043325;28;20029;-80
2023/04/29 06:52:18;;;;;;;0.28;0.28;;;16.40;99.90;;;;;;5042890;28;20060;-80
2023/04/29 06:54:44;;;;;;;0.40;0.40;;;16.10;99.90;;;;;;5042088;28;20116;-79
2023/04/29 06:57:10;;;;;;;0.32;0.32;;;15.70;99.90;;;;;;5043342;28;20037;-80
2023/04/29 06:59:36;;;;;;;0.20;0.20;;;15.40;99.90;;;;;;5024013;28;20466;-78
2023/04/29 07:02:01;;;;;;;0.30;0.30;;;15.20;99.90;;;;;;5043238;28;20147;-78
2023/04/29 07:04:27;;;;;;;0.60;0.60;;;15.00;99.90;;;;;;5024604;28;20026;-80
2023/04/29 07:06:53;;;;;;;0.77;0.77;;;14.90;99.90;;;;;;5044757;28;20033;-81
2023/04/29 07:09:18;;;;;;;1.00;1.00;;;14.60;99.90;;;;;;5044128;28;20033;-80
2023/04/29 07:11:44;;;;;;;0.73;0.73;;;14.50;99.90;;;;;;5025381;28;20033;-80
2023/04/29 07:14:10;;;;;;;0.70;0.70;;;14.40;99.90;;;;;;5025244;28;20014;-79
2023/04/29 07:16:36;;;;;;;0.70;0.70;;;14.40;99.90;;;;;;5038879;28;20099;-79
2023/04/29 07:19:01;;;;;;;0.80;0.80;;;14.40;99.90;;;;;;5029683;28;20041;-79
2023/04/29 07:21:27;;;;;;;0.68;0.68;;;14.40;99.90;;;;;;5053215;28;20013;-81
2023/04/29 07:23:54;;;;;;;0.50;0.50;;;14.40;99.90;;;;;;5042641;28;20117;-80
2023/04/29 07:26:20;;;;;;;0.45;0.45;;;14.50;99.90;;;;;;5042889;28;20116;-79
2023/04/29 07:28:48;;;;;;;0.32;0.32;;;14.60;99.90;;;;;;5025171;28;20025;-79
2023/04/29 07:31:13;;;;;;;0.55;0.55;;;14.90;99.90;;;;;;5044558;28;20425;-80
2023/04/29 07:33:39;;;;;;;1.08;1.08;;;15.10;99.90;;;;;;5046626;28;20057;-80
2023/04/29 07:36:06;;;;;;;0.90;0.90;;;15.10;99.90;;;;;;5046046;28;20009;-80
2023/04/29 07:38:32;;;;;;;1.30;1.30;;;15.20;99.90;;;;;;5053815;28;20088;-78
2023/04/29 07:40:58;;;;;;;1.27;1.27;;;15.30;99.90;;;;;;5055385;28;20060;-79
2023/04/29 07:43:24;;;;;;;1.80;1.67;;;15.30;99.90;;;;;;5037443;28;20033;-79
2023/04/29 07:45:50;;;;;;;1.10;1.10;;;15.20;99.90;;;;;;5052813;28;20033;-79
2023/04/29 07:48:15;;;;;;;1.35;1.35;;;15.30;99.90;;;;;;5050249;28;20021;-79
2023/04/29 07:50:41;;;;;;;1.42;1.30;;;15.40;99.90;;;;;;5054897;28;20056;-79
2023/04/29 07:53:07;;;;;;;1.30;1.30;;;15.30;99.90;;;;;;5038390;28;20021;-79
2023/04/29 07:55:33;;;;;;;1.20;1.20;;;15.30;99.90;;;;;;5053740;28;20046;-79
2023/04/29 07:57:59;;;;;;;2.33;1.90;;;15.40;99.90;;;;;;5047141;28;20073;-80
2023/04/29 08:00:26;;;;;;;2.30;2.17;;;15.40;99.90;;;;;;5045516;28;20285;-78
2023/04/29 08:02:53;;;;;;;2.03;1.92;;;15.40;99.90;;;;;;5046733;28;20036;-79
2023/04/29 08:05:20;;;;;;;1.85;1.75;;;15.50;99.90;;;;;;5028417;28;20034;-80
2023/04/29 08:07:50;;;;;;;1.50;1.40;;;15.80;99.90;;;;;;5046167;28;20030;-78
2023/04/29 08:10:17;;;;;;;1.48;1.38;;;16.00;99.90;;;;;;5028861;28;20476;-79
2023/04/29 08:12:46;;;;;;;1.50;1.40;;;15.90;99.90;;;;;;5043695;28;20029;-79
2023/04/29 08:15:12;;;;;;;1.30;1.30;;;16.00;99.90;;;;;;5043352;28;20045;-80
2023/04/29 08:17:37;;;;;;;1.60;1.50;;;16.10;99.90;;;;;;5026594;28;20071;-79
2023/04/29 08:20:03;;;;;;;2.25;2.05;;;16.10;99.90;;;;;;5044211;28;20064;-79
2023/04/29 08:22:29;;;;;;;3.35;2.08;;;16.00;99.90;;;;;;5043687;28;20025;-79
2023/04/29 08:24:56;;;;;;;2.22;1.70;;;15.90;99.90;;;;;;5042070;28;20343;-78
2023/04/29 08:27:22;;;;;;;2.35;2.15;;;15.70;99.90;;;;;;5023800;28;20089;-80
2023/04/29 08:29:47;;;;;;;1.70;1.60;;;15.30;99.90;;;;;;5023726;28;20033;-81
2023/04/29 08:32:13;;;;;;;1.58;1.48;;;15.10;99.90;;;;;;5041636;28;20111;-79
2023/04/29 08:34:40;;;;;;;1.67;1.30;;;15.00;99.90;;;;;;5025419;28;20063;-80
2023/04/29 08:37:06;;;;;;;1.20;1.15;;;15.20;99.90;;;;;;5047229;28;20024;-79
2023/04/29 08:39:32;;;;;;;1.02;1.02;;;15.70;99.90;;;;;;5049759;28;20045;-78
2023/04/29 08:41:58;;;;;;;1.65;1.55;;;16.10;99.90;;;;;;5027565;28;20110;-80
2023/04/29 08:44:28;;;;;;;1.38;1.38;;;16.50;99.90;;;;;;5025660;28;20075;-78
2023/04/29 08:46:54;;;;;;;1.70;1.60;;;16.70;99.90;;;;;;5050278;28;20022;-77
2023/04/29 08:49:20;;;;;;;1.75;1.33;;;16.80;99.90;;;;;;5055434;28;20063;-79
2023/04/29 08:51:50;;;;;;;1.95;1.50;;;16.90;99.90;;;;;;5057407;28;20036;-79
2023/04/29 08:54:16;;;;;;;1.30;1.30;;;16.90;99.90;;;;;;5058667;28;20013;-80
2023/04/29 08:56:46;;;;;;;1.23;1.23;;;16.60;99.90;;;;;;5043878;28;20319;-79
2023/04/29 08:59:14;;;;;;;1.73;1.63;;;16.70;99.90;;;;;;5027325;28;20120;-78
2023/04/29 09:01:43;;;;;;;2.78;1.50;;;16.80;99.90;;;;;;5029044;28;20489;-79
2023/04/29 09:04:18;;;;;;;1.35;1.27;;;16.90;99.90;;;;;;5029020;28;20632;-78
2023/04/29 09:06:44;;;;;;;1.40;1.30;;;17.40;99.90;;;;;;5046354;28;20022;-79
2023/04/29 09:09:10;;;;;;;1.17;1.10;;;17.60;99.90;;;;;;5028945;28;20021;-79
2023/04/29 09:11:36;;;;;;;1.10;1.10;;;17.40;99.90;;;;;;5046708;28;20128;-79
2023/04/29 09:14:03;;;;;;;1.55;1.45;;;17.10;99.90;;;;;;5045933;28;20381;-81
2023/04/29 09:16:29;;;;;;;1.63;1.30;;;16.70;99.90;;;;;;5045581;28;20029;-79
2023/04/29 09:18:55;;;;;;;1.80;1.70;;;16.70;99.90;;;;;;5047160;28;20053;-78
2023/04/29 09:21:27;;;;;;;2.17;1.48;;;16.90;99.90;;;;;;5058541;28;20036;-77
2023/04/29 09:23:58;;;;;;;1.33;1.25;;;17.10;99.90;;;;;;5047005;28;20099;-78
2023/04/29 09:26:24;;;;;;;1.20;1.10;;;17.20;99.90;;;;;;5029291;28;20389;-78
2023/04/29 09:29:12;;;;;;;1.00;1.00;;;17.60;99.90;;;;;;5047104;28;20022;-78
2023/04/29 09:31:39;;;;;;;1.30;1.20;;;17.90;99.90;;;;;;5051916;28;20090;-80
2023/04/29 09:34:07;;;;;;;1.10;1.00;;;17.90;99.90;;;;;;5055757;28;20447;-79
2023/04/29 09:36:39;;;;;;;1.20;1.20;;;17.70;99.90;;;;;;5040590;28;20081;-79
2023/04/29 09:39:10;;;;;;;1.35;1.13;;;17.30;99.90;;;;;;5058683;28;20093;-78
2023/04/29 09:42:02;;;;;;;1.10;1.10;;;16.70;99.90;;;;;;5041389;28;20022;-77
2023/04/29 09:44:34;;;;;;;1.60;1.45;;;16.20;99.90;;;;;;5058199;28;20108;-78
2023/04/29 09:47:01;;;;;;;1.40;1.30;;;15.80;99.90;;;;;;5058269;28;20020;-79
2023/04/29 09:49:34;;;;;;;1.33;1.10;;;15.40;99.90;;;;;;5058278;28;20029;-78
2023/04/29 09:52:03;;;;;;;1.30;1.20;;;15.60;99.90;;;;;;5058204;28;20026;-79
2023/04/29 09:54:30;;;;;;;1.10;1.10;;;16.10;99.90;;;;;;5049160;28;20430;-79
2023/04/29 09:56:58;;;;;;;0.93;0.93;;;16.60;99.90;;;;;;5045813;28;20033;-79
2023/04/29 09:59:25;;;;;;;2.00;0.95;;;17.20;99.90;;;;;;5046355;28;20049;-78
2023/04/29 10:01:55;;;;;;;1.40;1.30;;;17.80;99.90;;;;;;5045838;28;20025;-80
2023/04/29 10:04:23;;;;;;;1.58;1.23;;;18.20;99.90;;;;;;5045199;28;20021;-80
2023/04/29 10:06:50;;;;;;;1.20;1.20;;;18.30;99.90;;;;;;5046411;28;20038;-78
2023/04/29 10:09:17;;;;;;;1.42;1.33;;;18.20;99.90;;;;;;5045719;28;20060;-79
2023/04/29 10:11:49;;;;;;;1.10;1.08;;;18.30;99.90;;;;;;5028386;28;20038;-80
2023/04/29 10:14:16;;;;;;;1.25;1.15;;;18.50;99.90;;;;;;5045857;28;20049;-79
2023/04/29 10:17:02;;;;;;;1.17;1.15;;;18.50;99.90;;;;;;5028963;28;20033;-78
2023/04/29 10:19:46;;;;;;;4.50;1.48;;;18.00;99.90;;;;;;5027338;28;20044;-79
2023/04/29 10:22:21;;;;;;;2.10;1.88;;;17.80;99.90;;;;;;5044640;28;20013;-79
2023/04/29 10:24:47;;;;;;;2.70;2.50;;;17.50;99.90;;;;;;5045293;28;20036;-78
2023/04/29 10:27:14;;;;;;;2.03;1.92;;;17.20;99.90;;;;;;5051043;28;20021;-78
2023/04/29 10:29:42;;;;;;;2.35;2.15;;;16.80;99.90;;;;;;5052501;28;20032;-78
2023/04/29 10:32:09;;;;;;;3.75;1.85;;;16.50;99.90;;;;;;5052843;28;20025;-79
2023/04/29 10:34:38;;;;;;;2.15;1.95;;;16.20;99.90;;;;;;5051200;28;20047;-79
2023/04/29 10:37:05;;;;;;;1.83;1.60;;;16.00;99.90;;;;;;5051511;28;20018;-78
2023/04/29 10:39:49;;;;;;;1.75;1.65;;;15.90;99.90;;;;;;5052687;28;20018;-78
2023/04/29 10:42:25;;;;;;;2.25;2.05;;;16.10;99.90;;;;;;5051862;28;20079;-78
2023/04/29 10:45:15;;;;;;;1.90;1.80;;;16.40;99.90;;;;;;5034548;28;20026;-78
2023/04/29 10:47:42;;;;;;;2.22;1.75;;;16.50;99.90;;;;;;5051000;28;20026;-77
2023/04/29 10:50:09;;;;;;;1.38;1.25;;;16.90;99.90;;;;;;5050947;28;20060;-79
2023/04/29 10:52:55;;;;;;;1.52;1.42;;;17.40;99.90;;;;;;5027903;28;20049;-80
2023/04/29 10:55:23;;;;;;;1.75;1.38;;;17.90;97.70;;;;;;5028044;28;20045;-79
2023/04/29 10:57:51;;;;;;;1.58;1.40;;;18.10;95.90;;;;;;5028263;28;20029;-80
2023/04/29 11:00:31;;;;;;;2.50;1.55;;;18.10;92.80;;;;;;5045309;28;20429;-79
2023/04/29 11:02:59;;;;;;;1.70;1.38;;;17.80;92.90;;;;;;5027543;28;20029;-80
2023/04/29 11:05:33;;;;;;;1.20;1.20;;;17.70;91.20;;;;;;5045769;28;20025;-79
2023/04/29 11:08:28;;;;;;;2.22;1.33;;;17.70;91.00;;;;;;5027937;28;20521;-80
2023/04/29 11:11:00;;;;;;;1.83;1.42;;;17.90;94.80;;;;;;5027796;28;20068;-79
2023/04/29 11:13:30;;;;;;;1.40;1.30;;;18.00;92.80;;;;;;5043292;28;20028;-78
2023/04/29 11:16:10;;;;;;;1.42;1.30;;;17.80;90.30;;;;;;5044186;28;20045;-80
2023/04/29 11:19:03;;;;;;;2.63;1.40;;;17.50;92.80;;;;;;5044809;28;20022;-80
2023/04/29 11:21:31;;;;;;;1.40;1.30;;;17.80;87.90;;;;;;5056038;28;20028;-78
2023/04/29 11:23:57;;;;;;;0.90;0.90;;;17.90;90.00;;;;;;5046918;28;20036;-80
2023/04/29 11:26:23;;;;;;;1.00;0.90;;;18.10;89.90;;;;;;5026226;28;20025;-79
2023/04/29 11:28:53;;;;;;;1.30;0.77;;;18.30;90.50;;;;;;5042950;28;20073;-78
2023/04/29 11:31:19;;;;;;;1.70;1.00;;;19.00;79.30;;;;;;5043895;28;20112;-81
2023/04/29 11:33:46;;;;;;;1.08;0.93;;;19.00;81.20;;;;;;5043323;28;20096;-78
2023/04/29 11:36:13;;;;;;;1.52;0.95;;;18.60;78.10;;;;;;5036543;28;20025;-79
2023/04/29 11:38:40;;;;;;;1.00;0.90;;;18.80;77.50;;;;;;5037460;28;20128;-79
2023/04/29 11:41:06;;;;;;;1.50;0.95;;;18.70;78.90;;;;;;5020152;28;20025;-78
2023/04/29 11:43:31;;;;;;;0.60;0.60;;;18.90;79.60;;;;;;5022810;28;20029;-79
2023/04/29 11:45:57;;;;;;;2.05;0.70;;;18.90;75.60;;;;;;5039817;28;20033;-80
2023/04/29 11:48:24;;;;;;;0.80;0.80;;;18.60;76.00;;;;;;5041547;28;20029;-79
2023/04/29 11:50:57;;;;;;;0.95;0.60;;;18.40;75.10;;;;;;5042995;28;20109;-79
2023/04/29 11:53:26;;;;;;;0.73;0.73;;;18.40;81.90;;;;;;5026640;28;20032;-79
2023/04/29 11:55:53;;;;;;;1.83;0.93;;;19.00;78.70;;;;;;5043403;28;20029;-81
2023/04/29 11:58:22;;;;;;;0.75;0.60;;;19.90;71.50;;;;;;5043711;28;20493;-79
2023/04/29 12:00:48;;;;;;;2.50;1.35;;;20.00;68.30;;;;;;5046776;28;20052;-80
2023/04/29 12:03:15;;;;;;;0.60;0.60;;;20.00;67.90;;;;;;5038691;28;20021;-80
2023/04/29 12:05:52;;;;;;;0.52;0.52;;;20.30;67.20;;;;;;5039794;28;20146;-78
2023/04/29 12:08:25;;;;;;;1.08;0.70;;;20.50;66.90;;;;;;5040438;28;20029;-80
2023/04/29 12:10:56;;;;;;;1.95;0.50;;;20.60;65.10;;;;;;5022816;28;20052;-81
2023/04/29 12:13:31;;;;;;;0.73;0.70;;;20.60;64.80;;;;;;5022652;28;20037;-80
2023/04/29 12:15:58;;;;;;;1.30;0.60;;;20.90;63.50;;;;;;5039422;28;20029;-78
2023/04/29 12:18:24;;;;;;;0.63;0.63;;;21.00;62.60;;;;;;5044819;28;20093;-76
2023/04/29 12:20:50;;;;;;;2.28;0.95;;;20.90;62.30;;;;;;5054014;28;20108;-79
2023/04/29 12:23:18;;;;;;;1.45;0.80;;;20.80;62.00;;;;;;5021666;28;20049;-76
2023/04/29 12:25:52;;;;;;;0.68;0.68;;;20.50;62.20;;;;;;5022951;28;20466;-80
2023/04/29 12:28:19;;;;;;;1.48;1.00;;;;;;;;;;5022871;28;20120;-78
2023/04/29 12:30:46;;;;;;;0.45;0.45;;;20.20;61.60;;;;;;5038116;28;20133;-78
2023/04/29 12:33:25;;;;;;;1.50;0.65;;;20.30;62.10;;;;;;5038706;28;20026;-80
2023/04/29 12:35:54;;;;;;;0.90;0.90;;;20.60;60.80;;;;;;5039567;28;20045;-79
2023/04/29 12:38:27;;;;;;;0.70;0.68;;;20.80;60.40;;;;;;5029777;28;20024;-78
2023/04/29 12:40:57;;;;;;;2.25;0.85;;;21.10;60.20;;;;;;5033757;28;20017;-79
2023/04/29 12:43:32;;;;;;;0.57;0.57;;;21.20;59.60;;;;;;5035719;28;20013;-77
2023/04/29 12:46:06;;;;;;;1.17;0.95;;;20.80;60.40;;;;;;5035440;28;20305;-77
2023/04/29 12:48:33;;;;;;;1.25;0.63;;;20.30;61.90;;;;;;5047793;28;20390;-79
2023/04/29 12:51:00;;;;;;;2.83;0.93;;;20.40;62.00;;;;;;5034185;28;20044;-81
2023/04/29 12:53:27;;;;;;;2.50;0.57;;;20.60;60.70;;;;;;5049694;28;20033;-79
2023/04/29 12:55:53;;;;;;;2.92;0.70;;;20.60;61.60;;;;;;5039987;28;20042;-81